createdAt,value
2022-09-07T00:01:31.620Z,24.23
2022-09-07T00:04:01.073Z,24.20
2022-09-07T00:06:29.512Z,24.16
2022-09-07T00:08:58.509Z,24.24
2022-09-07T00:11:26.549Z,24.27
2022-09-07T00:13:55.049Z,24.34
2022-09-07T00:16:28.884Z,24.39
2022-09-07T00:18:59.590Z,24.51
2022-09-07T00:21:33.789Z,24.59
2022-09-07T00:24:02.139Z,24.64
2022-09-07T00:26:31.621Z,24.60
2022-09-07T00:29:02.797Z,24.60
2022-09-07T00:31:32.250Z,24.60
2022-09-07T00:34:02.247Z,24.51
2022-09-07T00:36:31.598Z,24.13
2022-09-07T00:38:59.564Z,23.82
2022-09-07T00:41:27.591Z,23.62
2022-09-07T00:43:58.765Z,23.37
2022-09-07T00:46:29.908Z,23.08
2022-09-07T00:49:08.132Z,22.57
2022-09-07T00:51:46.094Z,22.27
2022-09-07T00:54:20.493Z,21.97
2022-09-07T00:56:52.882Z,21.88
2022-09-07T00:59:27.292Z,21.86
2022-09-07T01:01:56.197Z,21.87
2022-09-07T01:04:25.857Z,21.85
2022-09-07T01:06:56.729Z,21.93
2022-09-07T01:09:28.765Z,21.86
2022-09-07T01:11:59.992Z,21.73
2022-09-07T01:14:33.329Z,21.58
2022-09-07T01:17:15.588Z,21.44
2022-09-07T01:20:42.102Z,21.37
2022-09-07T01:23:51.918Z,21.27
2022-09-07T01:27:01.717Z,21.21
2022-09-07T01:29:45.972Z,21.15
2022-09-07T01:32:42.210Z,21.16
2022-09-07T01:35:22.003Z,21.00
2022-09-07T01:38:02.291Z,20.98
2022-09-07T01:40:43.064Z,20.89
2022-09-07T01:43:19.792Z,20.88
2022-09-07T01:45:57.034Z,20.75
2022-09-07T01:48:27.186Z,20.63
2022-09-07T01:51:02.597Z,20.71
2022-09-07T01:53:41.540Z,20.75
2022-09-07T01:56:16.737Z,20.79
2022-09-07T01:58:52.458Z,20.75
2022-09-07T02:01:34.529Z,20.82
2022-09-07T02:04:12.005Z,20.82
2022-09-07T02:06:47.095Z,20.81
2022-09-07T02:09:27.990Z,20.78
2022-09-07T02:12:02.948Z,20.72
2022-09-07T02:14:38.143Z,20.78
2022-09-07T02:17:13.538Z,20.79
2022-09-07T02:19:52.767Z,20.79
2022-09-07T02:22:32.089Z,20.78
2022-09-07T02:25:06.303Z,20.76
2022-09-07T02:27:41.558Z,20.68
2022-09-07T02:30:10.353Z,20.52
2022-09-07T02:32:40.830Z,20.45
2022-09-07T02:35:11.314Z,20.39
2022-09-07T02:37:42.652Z,20.41
2022-09-07T02:40:12.729Z,20.45
2022-09-07T02:42:42.763Z,20.43
2022-09-07T02:45:15.441Z,20.39
2022-09-07T02:48:06.385Z,20.37
2022-09-07T02:51:00.570Z,20.30
2022-09-07T02:53:52.701Z,20.20
2022-09-07T02:56:44.314Z,20.18
2022-09-07T02:59:27.256Z,20.18
2022-09-07T03:02:06.106Z,20.19
2022-09-07T03:04:46.657Z,20.14
2022-09-07T03:07:21.272Z,20.17
2022-09-07T03:09:54.930Z,20.20
2022-09-07T03:12:22.922Z,20.11
2022-09-07T03:14:53.086Z,20.16
2022-09-07T03:17:21.181Z,20.23
2022-09-07T03:19:50.446Z,20.24
2022-09-07T03:22:19.502Z,20.29
2022-09-07T03:24:48.362Z,20.31
2022-09-07T03:27:16.822Z,20.33
2022-09-07T03:29:46.864Z,20.36
2022-09-07T03:32:15.243Z,20.38
2022-09-07T03:34:43.246Z,20.28
2022-09-07T03:37:12.560Z,20.23
2022-09-07T03:39:40.806Z,20.19
2022-09-07T03:42:08.918Z,20.14
2022-09-07T03:44:36.865Z,20.05
2022-09-07T03:47:06.510Z,19.88
2022-09-07T03:49:34.985Z,19.84
2022-09-07T03:52:04.542Z,19.84
2022-09-07T03:54:37.753Z,19.83
2022-09-07T03:57:08.257Z,19.64
2022-09-07T03:59:39.468Z,19.50
2022-09-07T04:02:07.607Z,19.49
2022-09-07T04:08:07.105Z,19.46
2022-09-07T04:10:39.526Z,19.42
2022-09-07T04:13:08.351Z,19.46
2022-09-07T04:15:37.169Z,19.45
2022-09-07T04:18:05.192Z,19.44
2022-09-07T04:20:33.615Z,19.39
2022-09-07T04:23:01.530Z,19.39
2022-09-07T04:25:30.219Z,19.37
2022-09-07T04:28:00.393Z,19.36
2022-09-07T04:30:28.547Z,19.35
2022-09-07T04:32:56.625Z,19.33
2022-09-07T04:35:24.709Z,19.31
2022-09-07T04:37:52.709Z,19.31
2022-09-07T04:40:22.093Z,19.27
2022-09-07T04:42:51.129Z,19.24
2022-09-07T04:45:22.117Z,19.23
2022-09-07T04:47:50.862Z,19.19
2022-09-07T04:50:19.357Z,19.15
2022-09-07T04:52:49.111Z,19.12
2022-09-07T04:55:17.395Z,19.12
2022-09-07T04:57:45.389Z,19.09
2022-09-07T05:00:14.734Z,19.05
2022-09-07T05:02:45.269Z,18.95
2022-09-07T05:05:13.730Z,18.87
2022-09-07T05:07:43.001Z,18.83
2022-09-07T05:10:12.157Z,18.90
2022-09-07T05:12:40.365Z,18.88
2022-09-07T05:15:13.623Z,18.88
2022-09-07T05:17:42.905Z,18.86
2022-09-07T05:20:10.973Z,18.95
2022-09-07T05:22:41.086Z,18.94
2022-09-07T05:25:10.777Z,18.96
2022-09-07T05:27:40.134Z,18.98
2022-09-07T05:33:05.155Z,18.97
2022-09-07T05:35:33.117Z,19.01
2022-09-07T05:38:02.441Z,18.93
2022-09-07T05:40:36.176Z,18.84
2022-09-07T05:43:06.448Z,18.84
2022-09-07T05:45:37.377Z,18.84
2022-09-07T05:48:07.725Z,18.88
2022-09-07T05:50:35.934Z,18.97
2022-09-07T05:53:05.033Z,19.12
2022-09-07T05:55:33.521Z,19.27
2022-09-07T05:58:04.054Z,19.45
2022-09-07T06:00:32.017Z,19.56
2022-09-07T06:03:00.176Z,19.68
2022-09-07T06:05:33.564Z,19.78
2022-09-07T06:08:01.766Z,19.87
2022-09-07T06:10:49.945Z,19.94
2022-09-07T06:13:18.017Z,20.09
2022-09-07T06:15:46.088Z,20.19
2022-09-07T06:18:15.048Z,20.23
2022-09-07T06:20:44.384Z,20.31
2022-09-07T06:23:12.317Z,20.38
2022-09-07T06:25:50.202Z,20.46
2022-09-07T06:28:18.247Z,20.57
2022-09-07T06:30:46.595Z,20.70
2022-09-07T06:33:18.085Z,20.75
2022-09-07T06:35:57.743Z,20.86
2022-09-07T06:38:31.860Z,20.95
2022-09-07T06:43:53.596Z,21.23
2022-09-07T06:49:10.927Z,21.47
2022-09-07T06:51:40.297Z,21.57
2022-09-07T06:56:57.649Z,21.80
2022-09-07T06:59:25.670Z,21.83
2022-09-07T07:01:53.624Z,21.95
2022-09-07T07:04:21.964Z,22.08
2022-09-07T07:06:51.933Z,22.18
2022-09-07T07:09:19.898Z,22.27
2022-09-07T07:11:48.240Z,22.24
2022-09-07T07:14:17.864Z,22.30
2022-09-07T07:16:46.804Z,22.34
2022-09-07T07:19:15.861Z,22.44
2022-09-07T07:22:07.749Z,22.34
2022-09-07T07:24:33.397Z,22.35
2022-09-07T07:27:03.422Z,22.40
2022-09-07T07:29:31.716Z,22.52
2022-09-07T07:32:00.731Z,22.60
2022-09-07T07:34:29.845Z,22.68
2022-09-07T07:36:58.036Z,22.82
2022-09-07T07:42:16.038Z,22.83
2022-09-07T07:44:44.057Z,22.95
2022-09-07T07:47:12.446Z,22.97
2022-09-07T07:49:40.300Z,23.10
2022-09-07T07:54:56.492Z,23.47
2022-09-07T07:57:26.380Z,23.51
2022-09-07T07:59:55.871Z,23.51
2022-09-07T08:02:24.097Z,23.41
2022-09-07T08:04:52.922Z,23.46
2022-09-07T08:07:22.348Z,23.56
2022-09-07T08:09:50.943Z,23.43
2022-09-07T08:12:20.497Z,23.39
2022-09-07T08:14:49.887Z,23.55
2022-09-07T08:17:18.305Z,23.74
2022-09-07T08:19:46.211Z,23.94
2022-09-07T08:22:14.108Z,24.19
2022-09-07T08:24:43.429Z,24.28
2022-09-07T08:27:11.322Z,24.31
2022-09-07T08:29:39.112Z,24.36
2022-09-07T08:32:08.350Z,24.37
2022-09-07T08:34:38.291Z,24.29
2022-09-07T08:37:06.247Z,24.19
2022-09-07T08:39:36.694Z,24.13
2022-09-07T08:42:34.312Z,24.17
2022-09-07T08:45:09.472Z,24.21
2022-09-07T08:47:46.789Z,24.00
2022-09-07T08:50:21.947Z,23.81
2022-09-07T08:52:56.339Z,23.74
2022-09-07T08:55:31.181Z,23.82
2022-09-07T08:58:26.690Z,23.73
2022-09-07T09:06:53.464Z,23.83
2022-09-07T09:09:40.817Z,24.13
2022-09-07T09:12:26.732Z,24.46
2022-09-07T09:15:15.715Z,24.61
2022-09-07T09:17:54.763Z,24.60
2022-09-07T09:20:31.645Z,24.98
2022-09-07T09:23:10.795Z,25.08
2022-09-07T09:25:45.756Z,25.02
2022-09-07T09:28:13.633Z,25.15
2022-09-07T09:30:42.259Z,24.73
2022-09-07T09:33:18.765Z,24.62
2022-09-07T09:35:51.534Z,24.39
2022-09-07T09:38:39.888Z,24.59
2022-09-07T09:41:11.257Z,24.60
2022-09-07T09:43:48.246Z,24.64
2022-09-07T09:46:24.627Z,24.78
2022-09-07T09:48:57.181Z,24.61
2022-09-07T09:54:27.111Z,24.62
2022-09-07T09:56:55.145Z,24.69
2022-09-07T10:05:30.467Z,23.85
2022-09-07T10:08:02.591Z,23.75
2022-09-07T10:10:31.511Z,23.66
2022-09-07T10:12:59.922Z,23.70
2022-09-07T10:15:40.129Z,23.77
2022-09-07T10:18:22.486Z,23.78
2022-09-07T10:20:50.376Z,23.61
2022-09-07T10:23:25.300Z,23.48
2022-09-07T10:25:53.429Z,23.26
2022-09-07T10:28:24.497Z,23.20
2022-09-07T10:31:15.829Z,23.33
2022-09-07T10:37:01.784Z,23.51
2022-09-07T10:39:37.113Z,23.83
2022-09-07T10:42:24.735Z,23.92
2022-09-07T10:45:12.335Z,24.09
2022-09-07T10:47:59.326Z,24.26
2022-09-07T10:50:32.415Z,24.29
2022-09-07T10:53:42.099Z,24.37
2022-09-07T10:56:21.038Z,24.33
2022-09-07T10:59:10.767Z,24.23
2022-09-07T11:01:59.963Z,24.09
2022-09-07T11:04:47.550Z,24.05
2022-09-07T11:07:48.540Z,24.22
2022-09-07T11:10:35.578Z,24.26
2022-09-07T11:13:10.383Z,24.44
2022-09-07T11:15:44.800Z,24.40
2022-09-07T11:18:20.256Z,24.43
2022-09-07T11:20:55.378Z,24.47
2022-09-07T11:23:40.374Z,24.59
2022-09-07T11:26:19.561Z,24.96
2022-09-07T11:31:49.026Z,25.41
2022-09-07T11:34:24.651Z,25.49
2022-09-07T11:37:00.978Z,25.53
2022-09-07T11:39:35.834Z,25.60
2022-09-07T11:45:15.244Z,25.52
2022-09-07T11:47:50.893Z,25.57
2022-09-07T11:50:23.705Z,25.77
2022-09-07T11:52:57.832Z,25.84
2022-09-07T11:55:29.643Z,26.06
2022-09-07T11:58:30.261Z,26.53
2022-09-07T12:01:21.234Z,26.89
2022-09-07T12:04:16.600Z,27.04
2022-09-07T12:07:21.987Z,26.96
2022-09-07T12:10:14.468Z,27.24
2022-09-07T12:13:07.963Z,27.37
2022-09-07T12:15:53.018Z,27.47
2022-09-07T12:19:01.859Z,27.93
2022-09-07T12:21:42.392Z,28.22
2022-09-07T12:24:43.857Z,28.13
2022-09-07T12:27:39.696Z,28.16
2022-09-07T12:30:59.660Z,28.17
2022-09-07T12:33:33.304Z,28.20
2022-09-07T12:36:22.721Z,28.08
2022-09-07T12:39:20.767Z,28.38
2022-09-07T12:44:41.901Z,29.55
2022-09-07T12:47:36.618Z,29.73
2022-09-07T12:50:24.493Z,29.42
2022-09-07T12:53:25.590Z,30.30
2022-09-07T12:56:27.525Z,30.48
2022-09-07T12:59:34.590Z,30.54
2022-09-07T13:02:30.541Z,31.34
2022-09-07T13:05:19.500Z,31.13
2022-09-07T13:08:14.401Z,30.21
2022-09-07T13:10:43.659Z,30.17
2022-09-07T13:17:16.057Z,30.10
2022-09-07T13:20:16.926Z,30.43
2022-09-07T13:23:29.775Z,30.59
2022-09-07T13:26:00.306Z,30.06
2022-09-07T13:28:55.841Z,30.09
2022-09-07T13:31:48.470Z,29.61
2022-09-07T13:34:48.537Z,29.67
2022-09-07T13:37:21.902Z,29.80
2022-09-07T13:39:54.821Z,30.03
2022-09-07T13:42:28.355Z,30.02
2022-09-07T13:45:00.444Z,30.27
2022-09-07T13:47:51.915Z,30.53
2022-09-07T13:50:35.922Z,30.89
2022-09-07T13:53:32.658Z,30.43
2022-09-07T13:56:18.894Z,30.22
2022-09-07T13:58:49.775Z,30.38
2022-09-07T14:01:23.185Z,30.12
2022-09-07T14:03:55.107Z,29.63
2022-09-07T14:06:35.398Z,29.42
2022-09-07T14:09:13.401Z,29.74
2022-09-07T14:11:44.651Z,30.22
2022-09-07T14:14:18.856Z,30.29
2022-09-07T14:16:54.787Z,30.18
2022-09-07T14:19:26.061Z,30.85
2022-09-07T14:22:00.504Z,30.41
2022-09-07T14:24:38.037Z,30.79
2022-09-07T14:27:19.863Z,30.98
2022-09-07T14:29:48.318Z,31.47
2022-09-07T14:32:22.650Z,31.40
2022-09-07T14:34:52.130Z,31.75
2022-09-07T14:37:23.323Z,32.05
2022-09-07T14:39:52.849Z,32.49
2022-09-07T14:42:24.590Z,32.83
2022-09-07T14:45:18.348Z,32.72
2022-09-07T14:47:52.290Z,32.85
2022-09-07T14:50:24.492Z,32.27
2022-09-07T14:55:46.473Z,31.24
2022-09-07T14:58:24.589Z,31.24
2022-09-07T15:03:59.270Z,31.92
2022-09-07T15:09:35.209Z,31.16
2022-09-07T15:12:17.623Z,30.76
2022-09-07T15:14:47.834Z,30.80
2022-09-07T15:20:47.017Z,30.77
2022-09-07T15:23:19.523Z,30.42
2022-09-07T15:25:53.717Z,30.44
2022-09-07T15:34:13.056Z,30.68
2022-09-07T15:36:46.177Z,30.77
2022-09-07T15:39:21.256Z,30.66
2022-09-07T15:41:51.457Z,30.70
2022-09-07T15:44:24.419Z,30.61
2022-09-07T15:49:50.389Z,30.22
2022-09-07T15:52:20.643Z,29.45
2022-09-07T15:54:48.461Z,29.28
2022-09-07T16:00:06.856Z,29.51
2022-09-07T16:05:30.910Z,29.70
2022-09-07T16:11:05.231Z,29.52
2022-09-07T16:13:34.290Z,28.96
2022-09-07T16:16:06.008Z,28.80
2022-09-07T16:18:34.968Z,28.57
2022-09-07T16:21:11.894Z,28.57
2022-09-07T16:23:44.454Z,28.61
2022-09-07T16:26:13.609Z,28.59
2022-09-07T16:28:44.766Z,28.41
2022-09-07T16:31:16.593Z,28.26
2022-09-07T16:33:44.802Z,28.26
2022-09-07T16:36:17.694Z,28.24
2022-09-07T16:38:49.678Z,28.27
2022-09-07T16:41:20.464Z,28.24
2022-09-07T16:43:49.415Z,28.26
2022-09-07T16:46:20.532Z,28.27
2022-09-07T16:48:51.546Z,28.28
2022-09-07T16:51:22.581Z,28.33
2022-09-07T16:53:55.107Z,28.46
2022-09-07T16:56:27.051Z,28.57
2022-09-07T16:58:57.634Z,28.49
2022-09-07T17:01:28.380Z,28.47
2022-09-07T17:03:56.763Z,28.59
2022-09-07T17:06:27.685Z,28.58
2022-09-07T17:08:59.499Z,28.61
2022-09-07T17:11:32.439Z,28.53
2022-09-07T17:14:01.352Z,28.41
2022-09-07T17:16:32.291Z,28.23
2022-09-07T17:21:53.003Z,27.76
2022-09-07T17:24:22.425Z,27.56
2022-09-07T17:26:50.270Z,27.36
2022-09-07T17:29:18.283Z,27.21
2022-09-07T17:34:39.923Z,26.98
2022-09-07T17:37:08.332Z,26.87
2022-09-07T17:39:38.870Z,26.75
2022-09-07T17:42:07.507Z,26.49
2022-09-07T17:44:37.972Z,26.26
2022-09-07T17:47:10.702Z,26.09
2022-09-07T17:49:40.009Z,25.92
2022-09-07T17:52:07.893Z,25.77
2022-09-07T17:54:35.757Z,25.59
2022-09-07T17:57:05.748Z,25.46
2022-09-07T18:02:21.970Z,25.17
2022-09-07T18:04:50.218Z,25.03
2022-09-07T18:07:18.277Z,24.92
2022-09-07T18:09:48.089Z,24.77
2022-09-07T18:12:17.326Z,24.67
2022-09-07T18:14:45.172Z,24.63
2022-09-07T18:17:13.291Z,24.56
2022-09-07T18:19:42.669Z,24.46
2022-09-07T18:22:11.062Z,24.39
2022-09-07T18:24:40.342Z,24.31
2022-09-07T18:27:09.833Z,24.21
2022-09-07T18:29:39.196Z,24.15
2022-09-07T18:32:09.874Z,24.11
2022-09-07T18:34:41.152Z,24.07
2022-09-07T18:37:12.137Z,24.03
2022-09-07T18:39:41.390Z,23.98
2022-09-07T18:42:09.900Z,23.91
2022-09-07T18:47:29.322Z,23.79
2022-09-07T18:49:58.606Z,23.74
2022-09-07T18:55:18.370Z,23.66
2022-09-07T18:57:48.520Z,23.62
2022-09-07T19:00:18.151Z,23.52
2022-09-07T19:02:51.174Z,23.41
2022-09-07T19:08:08.494Z,23.33
2022-09-07T19:10:38.312Z,23.28
2022-09-07T19:13:06.520Z,23.20
2022-09-07T19:15:38.086Z,23.12
2022-09-07T19:18:09.481Z,22.99
2022-09-07T19:20:37.671Z,22.96
2022-09-07T19:23:07.071Z,22.94
2022-09-07T19:25:42.928Z,22.89
2022-09-07T19:28:11.175Z,22.79
2022-09-07T19:30:40.506Z,22.70
2022-09-07T19:33:12.064Z,22.63
2022-09-07T19:35:39.947Z,22.58
2022-09-07T19:38:08.214Z,22.61
2022-09-07T19:40:37.292Z,22.56
2022-09-07T19:43:06.576Z,22.59
2022-09-07T19:45:39.262Z,22.61
2022-09-07T19:48:09.197Z,22.60
2022-09-07T19:50:37.207Z,22.55
2022-09-07T19:53:05.693Z,22.53
2022-09-07T19:55:35.994Z,22.54
2022-09-07T19:58:04.033Z,22.55
2022-09-07T20:00:40.095Z,22.50
2022-09-07T20:03:10.837Z,22.51
2022-09-07T20:05:41.190Z,22.46
2022-09-07T20:08:09.466Z,22.34
2022-09-07T20:10:37.664Z,22.32
2022-09-07T20:13:08.118Z,22.32
2022-09-07T20:15:42.511Z,22.28
2022-09-07T20:18:12.293Z,22.29
2022-09-07T20:20:45.481Z,22.23
2022-09-07T20:23:15.126Z,22.18
2022-09-07T20:25:43.973Z,22.12
2022-09-07T20:28:13.950Z,22.14
2022-09-07T20:30:43.685Z,22.11
2022-09-07T20:33:13.047Z,22.15
2022-09-07T20:35:44.691Z,22.08
2022-09-07T20:38:12.528Z,22.09
2022-09-07T20:40:51.079Z,22.05
2022-09-07T20:43:19.190Z,22.03
2022-09-07T20:45:47.812Z,21.98
2022-09-07T20:48:17.107Z,22.01
2022-09-07T20:50:55.260Z,22.01
2022-09-07T20:53:24.001Z,22.03
2022-09-07T20:55:59.284Z,22.02
2022-09-07T20:58:27.045Z,22.03
2022-09-07T21:00:55.062Z,22.01
2022-09-07T21:03:25.972Z,21.99
2022-09-07T21:05:54.831Z,22.01
2022-09-07T21:08:23.195Z,22.00
2022-09-07T21:10:51.454Z,21.99
2022-09-07T21:13:19.759Z,21.97
2022-09-07T21:15:47.616Z,21.93
2022-09-07T21:18:18.825Z,21.93
2022-09-07T21:21:18.929Z,21.87
2022-09-07T21:23:49.069Z,21.82
2022-09-07T21:26:21.183Z,21.74
2022-09-07T21:28:55.762Z,21.77
2022-09-07T21:31:26.518Z,21.73
2022-09-07T21:33:56.342Z,21.69
2022-09-07T21:36:26.835Z,21.67
2022-09-07T21:38:55.836Z,21.61
2022-09-07T21:41:25.650Z,21.59
2022-09-07T21:43:56.925Z,21.58
2022-09-07T21:46:26.510Z,21.53
2022-09-07T21:48:56.965Z,21.47
2022-09-07T21:51:28.776Z,21.39
2022-09-07T21:54:00.272Z,21.34
2022-09-07T21:56:31.090Z,21.33
2022-09-07T21:59:02.154Z,21.26
2022-09-07T22:01:32.189Z,21.22
2022-09-07T22:04:03.451Z,21.18
2022-09-07T22:06:33.940Z,21.17
2022-09-07T22:09:03.946Z,21.15
2022-09-07T22:11:32.465Z,21.13
2022-09-07T22:14:04.325Z,21.13
2022-09-07T22:16:34.281Z,21.09
2022-09-07T22:19:02.793Z,21.08
2022-09-07T22:21:33.996Z,21.07
2022-09-07T22:24:05.955Z,20.99
2022-09-07T22:26:42.371Z,21.00
2022-09-07T22:29:12.979Z,21.07
2022-09-07T22:31:44.641Z,21.01
2022-09-07T22:34:12.650Z,20.95
2022-09-07T22:36:44.321Z,20.95
2022-09-07T22:39:15.326Z,20.90
2022-09-07T22:41:45.249Z,20.89
2022-09-07T22:44:17.826Z,20.84
2022-09-07T22:46:48.085Z,20.69
2022-09-07T22:49:17.292Z,20.67
2022-09-07T22:51:48.053Z,20.63
2022-09-07T22:54:16.240Z,20.63
2022-09-07T22:56:44.172Z,20.69
2022-09-07T22:59:14.090Z,20.71
2022-09-07T23:01:42.503Z,20.70
2022-09-07T23:04:11.701Z,20.72
2022-09-07T23:06:43.147Z,20.79
2022-09-07T23:09:16.143Z,20.70
2022-09-07T23:11:45.512Z,20.74
2022-09-07T23:14:15.892Z,20.83
2022-09-07T23:16:45.090Z,20.90
2022-09-07T23:19:15.043Z,20.89
2022-09-07T23:21:44.130Z,20.87
2022-09-07T23:24:15.870Z,20.88
2022-09-07T23:26:46.632Z,20.88
2022-09-07T23:29:16.216Z,20.83
2022-09-07T23:31:46.962Z,20.71
2022-09-07T23:34:15.119Z,20.70
2022-09-07T23:36:43.049Z,20.58
2022-09-07T23:39:11.219Z,20.43
2022-09-07T23:41:41.158Z,20.44
2022-09-07T23:44:09.326Z,20.40
2022-09-07T23:46:37.727Z,20.38
2022-09-07T23:49:05.709Z,20.44
2022-09-07T23:51:33.730Z,20.53
2022-09-07T23:54:01.773Z,20.51
2022-09-07T23:56:32.645Z,20.47
2022-09-07T23:59:01.908Z,20.41
